Meath Environmental Platform

Observations for Trim Patrick St

Time AQI Temp °C Hum % Pres Pa CO μg/m³ H₂S μg/m³ NO μg/m³ NO₂ μg/m³ O₃ μg/m³ SO₂ μg/m³ PM1 μg/m³ PM2.5 μg/m³ PM10 μg/m³
Sunday 2 August 2026
10:37 2 23.8 49 69,136 0 0 1.72 10.66 64.33 4.2 3.71 9.52 10.47
10:36 2 23.8 50 69,159 0 0 1.78 8.48 62.2 4.46 2.86 9.47 10.41
10:35 2 23.8 50 69,193 0 0 1.77 11.41 63.48 5.27 2.86 9.45 10.4
10:34 2 23.8 50 69,202 0 0 1.62 11.72 62.63 4.8 4.57 10.22 11.25
10:33 2 23.7 50 69,214 0 0 1.58 11.83 64.28 5.14 3.71 7.93 8.73
10:32 2 23.7 50 69,201 0 0 1.51 11.35 64.27 4.86 4.57 9.45 10.4
10:31 2 23.7 50 69,218 0 0 1.49 11.18 64.79 4.57 2.86 8.7 9.57
10:30 2 23.7 50 69,210 0 0 1.58 8.71 64.94 4.7 5.43 10.98 12.08
10:29 2 23.7 50 69,228 0 0 1.63 8.54 63.42 3.95 3.71 10.24 11.26
10:28 2 23.7 51 69,254 0 0 1.68 12.01 63.85 5.17 4.57 10.19 11.2
10:27 2 23.7 51 69,258 0 0 1.7 8.88 63.54 4.62 2.86 8.66 9.53
10:26 2 23.7 51 69,292 0 0 1.84 9.11 65.95 5.1 4.57 10.95 12.04
10:25 2 23.6 50 69,276 0 0 1.79 12.11 64.87 4.12 5.43 10.19 11.21
10:24 2 23.6 51 69,252 0 0 1.86 9.67 62.38 4.79 2.86 9.37 10.31
10:23 2 23.6 51 69,284 0 0 1.84 8.62 60.88 3.98 4.57 10.91 12
10:22 2 23.5 51 69,324 0 0 1.87 11.46 61.75 4.1 4.57 10.15 11.16
10:21 2 23.5 51 69,345 0 0 1.9 10 64.06 4.26 2.86 8.61 9.47
10:20 2 23.4 51 69,375 0 0 1.88 11.99 59.74 3.57 3.71 10.14 11.16
10:19 2 23.4 51 69,381 0 0 1.83 11.54 61.01 4.03 3.71 9.37 10.31
10:18 2 23.3 51 69,391 0 0 1.89 9.8 63.91 4.58 4.57 10.14 11.16